Time;durP1;ratioP1;P1;durP2;ratioP2;P2;SDS_P1;SDS_P2;PMS_P1;PMS_P2;Temp;Humidity;BMP_temperature;BMP_pressure;BME280_temperature;BME280_humidity;BME280_pressure;Samples;Min_cycle;Max_cycle;Signal;HPM_P1;HPM_P2
2023/06/30 00:03:45;;;;;;;3.10;2.40;;;;;;;21.04;67.22;99472.88;10482988;28;20044;-73
2023/06/30 00:08:48;;;;;;;3.13;2.40;;;;;;;21.02;67.84;99467.66;10483230;28;20041;-73
2023/06/30 00:13:55;;;;;;;2.97;2.40;;;;;;;20.99;67.46;99472.44;10501612;28;20406;-72
2023/06/30 00:18:56;;;;;;;2.80;2.00;;;;;;;21.18;66.07;99472.56;10484070;28;20097;-73
2023/06/30 00:24:01;;;;;;;3.28;2.20;;;;;;;21.02;67.75;99473.00;10501229;28;20075;-73
2023/06/30 00:29:03;;;;;;;2.78;2.00;;;;;;;20.97;67.94;99469.88;10482384;28;20049;-73
2023/06/30 00:34:05;;;;;;;2.60;2.40;;;;;;;20.99;68.72;99462.59;10500119;28;20090;-73
2023/06/30 00:39:07;;;;;;;3.83;3.42;;;;;;;20.87;71.34;99459.09;10499485;28;20044;-73
2023/06/30 00:44:09;;;;;;;3.63;2.13;;;;;;;20.74;71.37;99453.09;10498375;28;20044;-73
2023/06/30 00:49:11;;;;;;;3.53;2.47;;;;;;;20.76;71.86;99445.81;10498149;28;20044;-73
2023/06/30 00:54:13;;;;;;;3.88;2.45;;;;;;;20.75;70.76;99441.44;10498487;28;20056;-73
2023/06/30 00:59:15;;;;;;;3.00;2.30;;;;;;;20.71;71.45;99437.31;10499177;28;20064;-73
2023/06/30 01:04:27;;;;;;;3.50;2.13;;;;;;;20.78;70.27;99437.66;10484762;28;20078;-73
2023/06/30 01:09:36;;;;;;;3.22;2.25;;;;;;;20.63;71.67;99432.63;10507873;28;20068;-71
2023/06/30 01:14:39;;;;;;;2.83;2.10;;;;;;;20.80;70.21;99435.69;10507650;28;20050;-74
2023/06/30 01:19:45;;;;;;;2.88;2.20;;;;;;;20.72;71.27;99428.34;10489249;28;20102;-73
2023/06/30 01:24:52;;;;;;;2.47;2.28;;;;;;;20.63;72.90;99429.13;10506787;28;20375;-73
2023/06/30 01:29:54;;;;;;;2.28;2.08;;;;;;;20.51;74.14;99425.63;10487436;28;20413;-73
2023/06/30 01:34:56;;;;;;;4.28;2.78;;;;;;;20.68;74.23;99421.56;10487279;28;20060;-72
2023/06/30 01:39:59;;;;;;;2.58;2.30;;;;;;;20.75;74.32;99411.22;10506511;28;20066;-73
2023/06/30 01:45:03;;;;;;;3.00;2.67;;;;;;;20.82;73.93;99415.06;10506692;28;20059;-74
2023/06/30 01:50:05;;;;;;;3.42;2.50;;;;;;;20.83;74.25;99414.09;10488829;28;20052;-73
2023/06/30 01:55:08;;;;;;;5.50;2.92;;;;;;;20.40;77.15;99405.09;10506059;28;20086;-73
2023/06/30 02:00:10;;;;;;;4.03;2.22;;;;;;;20.21;77.98;99406.75;10504972;28;20379;-72
2023/06/30 02:05:15;;;;;;;3.93;2.40;;;;;;;20.23;78.42;99413.69;10505910;28;20502;-73
2023/06/30 02:10:17;;;;;;;2.95;2.40;;;;;;;20.33;77.81;99411.94;10486906;28;20048;-73
2023/06/30 02:15:18;;;;;;;2.83;2.40;;;;;;;20.24;76.87;99401.19;10486942;28;20456;-73
2023/06/30 02:20:20;;;;;;;3.08;2.78;;;;;;;20.07;76.55;99397.22;10487351;28;20526;-73
2023/06/30 02:25:22;;;;;;;4.35;2.97;;;;;;;20.07;76.67;99394.53;10504895;28;20044;-72
2023/06/30 02:30:25;;;;;;;4.75;2.75;;;;;;;20.20;76.05;99389.91;10486539;28;20127;-74
2023/06/30 02:35:27;;;;;;;3.90;2.92;;;;;;;20.41;76.01;99404.16;10505210;28;20033;-73
2023/06/30 02:40:29;;;;;;;4.10;2.63;;;;;;;20.26;77.15;99399.22;10504083;28;20048;-72
2023/06/30 02:45:32;;;;;;;3.40;2.45;;;;;;;20.14;76.97;99403.72;10504013;28;20489;-72
2023/06/30 02:50:34;;;;;;;1.98;1.70;;;;;;;20.38;72.07;99398.22;10469086;28;20517;-73
2023/06/30 02:55:36;;;;;;;2.00;1.60;;;;;;;20.37;73.86;99400.03;10485252;28;20060;-73
2023/06/30 03:00:43;;;;;;;1.98;1.77;;;;;;;20.25;74.35;99402.88;10485574;28;20044;-73
2023/06/30 03:05:45;;;;;;;1.75;1.60;;;;;;;20.03;77.18;99409.09;10484932;28;20068;-73
2023/06/30 03:10:49;;;;;;;4.05;1.42;;;;;;;20.01;74.73;99406.56;10484908;28;20510;-72
2023/06/30 03:16:12;;;;;;;2.00;1.60;;;;;;;19.97;74.67;99413.13;10400547;28;20111;-73
2023/06/30 03:21:14;;;;;;;2.85;1.65;;;;;;;20.32;72.13;99409.38;10399950;28;20045;-72
2023/06/30 03:26:16;;;;;;;2.45;1.70;;;;;;;20.00;74.28;99404.84;10415306;28;20046;-73
2023/06/30 03:31:19;;;;;;;2.80;1.20;;;;;;;19.95;73.89;99399.03;10415548;28;20069;-72
2023/06/30 03:36:22;;;;;;;2.67;1.60;;;;;;;20.10;73.88;99400.50;10400128;28;20060;-72
2023/06/30 03:41:23;;;;;;;2.63;1.73;;;;;;;19.96;75.71;99397.22;10399497;28;20045;-74
2023/06/30 03:46:25;;;;;;;3.47;1.77;;;;;;;20.02;74.54;99405.59;10468650;28;20423;-72
2023/06/30 03:51:27;;;;;;;2.58;1.60;;;;;;;20.04;73.34;99398.28;10484317;28;20520;-72
2023/06/30 03:56:31;;;;;;;1.70;1.38;;;;;;;20.03;73.94;99407.28;10503082;28;20036;-72
2023/06/30 04:01:33;;;;;;;2.65;2.00;;;;;;;20.40;71.50;99404.25;10501796;28;20182;-72
2023/06/30 04:06:36;;;;;;;2.60;2.05;;;;;;;20.33;72.03;99411.09;10501219;28;20072;-72
2023/06/30 04:11:38;;;;;;;3.05;1.50;;;;;;;20.29;72.82;99409.66;10483218;28;20055;-72
2023/06/30 04:16:40;;;;;;;2.30;2.08;;;;;;;20.36;73.07;99403.69;10501231;28;20063;-73
2023/06/30 04:21:42;;;;;;;2.38;1.95;;;;;;;20.22;75.54;99393.28;10501218;28;20128;-72
2023/06/30 04:26:44;;;;;;;5.43;2.45;;;;;;;20.19;76.03;99393.56;10500997;28;20044;-74
2023/06/30 04:31:46;;;;;;;2.88;2.15;;;;;;;19.98;78.01;99401.47;10500677;28;20128;-73
2023/06/30 04:36:49;;;;;;;3.55;2.22;;;;;;;20.04;77.81;99408.97;10502668;28;20087;-73
2023/06/30 04:41:51;;;;;;;6.75;2.30;;;;;;;19.97;80.21;99394.44;10508120;28;20056;-73
2023/06/30 04:46:52;;;;;;;2.97;2.35;;;;;;;20.15;79.38;99400.97;10507431;28;20037;-74
2023/06/30 04:51:54;;;;;;;3.33;2.97;;;;;;;20.37;78.78;99402.72;10507337;28;20041;-73
2023/06/30 04:56:56;;;;;;;3.33;2.47;;;;;;;20.24;78.72;99396.69;10508233;28;20413;-73
2023/06/30 05:01:58;;;;;;;3.17;2.88;;;;;;;20.55;75.87;99394.19;10509258;28;20044;-73
2023/06/30 05:07:00;;;;;;;4.40;2.70;;;;;;;20.65;75.99;99395.13;10508454;28;20466;-73
2023/06/30 05:12:02;;;;;;;5.22;3.40;;;;;;;20.83;74.00;99392.72;10508658;28;20052;-72
2023/06/30 05:17:04;;;;;;;3.90;3.50;;;;;;;20.69;75.66;99399.22;10488579;28;20402;-73
2023/06/30 05:22:06;;;;;;;4.55;4.22;;;;;;;20.99;73.36;99405.63;10506447;28;20501;-73
2023/06/30 05:27:08;;;;;;;4.13;3.72;;;;;;;20.71;77.09;99399.94;10518303;22;20079;-69
2023/06/30 05:32:09;;;;;;;3.50;3.20;;;;;;;20.61;77.44;99389.16;10503189;28;20047;-69
2023/06/30 05:37:11;;;;;;;3.42;3.10;;;;;;;20.72;76.42;99384.75;10503142;28;20075;-69
2023/06/30 05:42:13;;;;;;;3.70;3.38;;;;;;;21.04;75.05;99396.25;10503272;28;20166;-69
2023/06/30 05:47:15;;;;;;;3.92;3.20;;;;;;;21.35;71.29;99397.16;10502671;28;20037;-69
2023/06/30 05:52:16;;;;;;;3.35;3.10;;;;;;;21.17;72.88;99391.53;10501681;28;20154;-69
2023/06/30 05:57:18;;;;;;;4.63;3.60;;;;;;;21.27;73.08;99380.06;10502324;28;20040;-69
2023/06/30 06:02:20;;;;;;;4.43;3.22;;;;;;;21.42;72.30;99376.06;10502073;28;20064;-69
2023/06/30 06:07:22;;;;;;;3.83;3.30;;;;;;;21.32;73.28;99372.50;10501819;28;20056;-70
2023/06/30 06:12:23;;;;;;;4.65;3.85;;;;;;;21.26;72.79;99373.88;10502988;28;20047;-69
2023/06/30 06:17:25;;;;;;;4.30;3.83;;;;;;;21.49;71.76;99387.09;10502183;28;20047;-70
2023/06/30 06:22:27;;;;;;;5.10;4.13;;;;;;;21.51;71.64;99382.44;10501697;28;20090;-70
2023/06/30 06:27:33;;;;;;;4.20;3.90;;;;;;;21.35;72.54;99382.94;10500933;28;20124;-70
2023/06/30 06:32:35;;;;;;;5.53;4.03;;;;;;;21.53;71.54;99377.81;10501582;28;20471;-70
2023/06/30 06:37:36;;;;;;;6.95;3.78;;;;;;;21.62;70.79;99377.84;10482716;28;20048;-70
2023/06/30 06:42:38;;;;;;;5.22;4.30;;;;;;;21.73;70.31;99381.41;10501845;28;20509;-70
2023/06/30 06:48:34;;;;;;;5.07;4.57;;;;;;;21.60;70.69;99389.66;10500645;28;20530;-70
2023/06/30 06:53:36;;;;;;;4.72;4.32;;;;;;;21.59;71.40;99394.16;10332592;28;20058;-70
2023/06/30 06:58:38;;;;;;;4.22;3.92;;;;;;;21.52;73.96;99392.19;10332126;28;20640;-70
2023/06/30 07:03:40;;;;;;;6.15;5.15;;;;;;;21.50;72.72;99394.13;10315422;28;20046;-70
2023/06/30 07:08:42;;;;;;;4.40;4.00;;;;;;;21.54;72.28;99399.06;10332926;28;20124;-70
2023/06/30 07:13:43;;;;;;;5.70;5.20;;;;;;;21.58;73.47;99399.66;10331679;28;20507;-70
2023/06/30 07:18:45;;;;;;;7.22;5.25;;;;;;;21.41;72.85;99407.31;10332500;28;20585;-70
2023/06/30 07:23:48;;;;;;;4.60;3.92;;;;;;;21.69;72.08;99404.06;10332072;28;20054;-70
2023/06/30 07:28:50;;;;;;;5.32;4.93;;;;;;;21.73;71.73;99400.13;10481586;28;20130;-70
2023/06/30 07:33:52;;;;;;;4.72;4.38;;;;;;;21.78;71.47;99404.13;10481685;28;20105;-70
2023/06/30 07:38:53;;;;;;;5.13;4.63;;;;;;;21.85;71.29;99402.56;10482132;28;20170;-69
2023/06/30 07:43:55;;;;;;;6.70;4.90;;;;;;;21.83;71.67;99407.22;10500626;28;20448;-69
2023/06/30 07:48:57;;;;;;;4.65;4.30;;;;;;;21.86;69.71;99406.09;10500165;28;20049;-69
2023/06/30 07:53:59;;;;;;;5.55;5.05;;;;;;;21.96;69.46;99398.09;10499980;28;20413;-69
2023/06/30 07:59:00;;;;;;;5.97;4.82;;;;;;;22.27;70.25;99405.13;10481245;28;20147;-69
2023/06/30 08:04:02;;;;;;;5.47;5.07;;;;;;;22.70;66.71;99416.41;10498791;28;20067;-70
2023/06/30 08:09:04;;;;;;;5.80;5.30;;;;;;;22.66;69.41;99415.84;10498122;28;20082;-69
2023/06/30 08:14:06;;;;;;;7.25;6.60;;;;;;;22.75;67.27;99414.16;10497456;28;20036;-69
2023/06/30 08:19:08;;;;;;;7.57;6.88;;;;;;;22.31;69.67;99409.22;10497772;28;20044;-69
2023/06/30 08:24:29;;;;;;;7.10;6.60;;;;;;;22.06;70.44;99407.84;10498603;28;20041;-69
2023/06/30 08:29:32;;;;;;;7.22;6.53;;;;;;;21.91;72.28;99420.78;10497443;28;20048;-71
2023/06/30 08:34:34;;;;;;;6.55;5.95;;;;;;;22.24;72.12;99418.75;10497866;28;20064;-69
2023/06/30 08:39:37;;;;;;;7.07;6.38;;;;;;;22.50;72.03;99413.72;10497574;28;20055;-70
2023/06/30 08:44:43;;;;;;;6.25;5.65;;;;;;;22.63;71.81;99424.19;10497496;28;20067;-70
2023/06/30 08:49:47;;;;;;;;;;;;;;;22.95;69.92;99425.75;10480065;28;20123;-70
2023/06/30 08:54:49;;;;;;;7.78;7.10;;;;;;;22.81;68.49;99411.75;10497807;28;19928;-70
2023/06/30 08:59:51;;;;;;;7.90;6.05;;;;;;;23.70;64.84;99403.41;10479550;28;20037;-70
2023/06/30 09:04:54;;;;;;;6.20;5.45;;;;;;;23.82;63.65;99407.59;10497718;28;20064;-70
2023/06/30 09:10:01;;;;;;;6.53;5.93;;;;;;;24.05;60.91;99424.16;10497019;28;20041;-70
2023/06/30 09:15:05;;;;;;;6.15;5.72;;;;;;;23.99;60.61;99411.31;10497667;28;20119;-70
2023/06/30 09:20:07;;;;;;;6.15;5.55;;;;;;;23.47;63.52;99408.28;10496746;28;20501;-70
2023/06/30 09:25:36;;;;;;;6.38;5.75;;;;;;;24.12;62.42;99406.44;10482337;28;20052;-70
2023/06/30 09:30:41;;;;;;;7.05;6.43;;;;;;;24.52;59.25;99397.16;10483042;28;20139;-70
2023/06/30 09:35:45;;;;;;;5.40;5.00;;;;;;;24.48;62.01;99403.84;10486284;28;20068;-70
2023/06/30 09:40:49;;;;;;;6.85;6.15;;;;;;;25.00;56.11;99408.47;10504915;28;20051;-70
2023/06/30 09:46:01;;;;;;;6.80;5.78;;;;;;;25.12;57.07;99410.78;10503233;28;20076;-70
2023/06/30 09:51:03;;;;;;;6.00;5.22;;;;;;;25.05;57.81;99404.31;10503770;28;20051;-70
2023/06/30 09:56:07;;;;;;;8.25;6.38;;;;;;;25.53;58.06;99394.91;10503603;28;20098;-70
2023/06/30 10:01:09;;;;;;;5.32;4.60;;;;;;;25.04;56.16;99397.25;10503978;28;20063;-70
2023/06/30 10:06:11;;;;;;;7.47;5.13;;;;;;;25.12;57.16;99388.44;10484518;28;20041;-70
2023/06/30 10:11:13;;;;;;;6.82;6.07;;;;;;;25.09;57.41;99383.38;10504094;28;20540;-70
2023/06/30 10:16:18;;;;;;;5.72;4.75;;;;;;;25.02;55.50;99383.13;10484829;28;20433;-70
2023/06/30 10:21:20;;;;;;;4.95;4.55;;;;;;;25.01;56.09;99376.06;10503637;28;20045;-70
2023/06/30 10:26:24;;;;;;;6.25;5.18;;;;;;;25.06;57.07;99380.97;10502816;28;20482;-70
2023/06/30 10:31:26;;;;;;;4.97;4.57;;;;;;;24.59;57.80;99374.03;10502770;28;20498;-70
2023/06/30 10:37:04;;;;;;;6.95;5.22;;;;;;;25.01;57.04;99367.97;10502336;28;20033;-70
2023/06/30 10:42:06;;;;;;;6.22;5.20;;;;;;;25.15;55.34;99372.00;10503766;28;20049;-70
2023/06/30 10:47:08;;;;;;;6.15;5.63;;;;;;;24.77;58.88;99363.28;10502048;28;20560;-70
2023/06/30 10:52:12;;;;;;;6.70;5.28;;;;;;;24.51;58.24;99360.53;10485575;28;20054;-70
2023/06/30 10:57:24;;;;;;;6.20;5.65;;;;;;;24.17;61.08;99365.69;10501414;28;20078;-70
2023/06/30 11:02:31;;;;;;;7.80;5.38;;;;;;;24.16;58.36;99359.50;10502559;28;20064;-70
2023/06/30 11:07:33;;;;;;;5.32;4.75;;;;;;;24.53;60.28;99353.19;10501341;28;20485;-70
2023/06/30 11:13:10;;;;;;;6.32;4.80;;;;;;;24.61;57.63;99341.63;10501422;28;20512;-70
2023/06/30 11:18:21;;;;;;;5.00;4.50;;;;;;;24.16;57.00;99334.47;10332225;28;20084;-70
2023/06/30 11:23:26;;;;;;;6.13;4.68;;;;;;;24.60;58.11;99331.91;10332650;28;20060;-70
2023/06/30 11:28:28;;;;;;;5.20;4.60;;;;;;;24.57;57.03;99313.38;10405671;22;20062;-74
2023/06/30 11:33:30;;;;;;;9.02;5.07;;;;;;;25.22;55.47;99292.34;10501628;28;20044;-75
2023/06/30 11:38:40;;;;;;;5.72;5.10;;;;;;;26.05;54.77;99287.09;10501699;28;20067;-73
2023/06/30 11:43:44;;;;;;;5.50;5.00;;;;;;;26.62;51.72;99283.63;10502071;28;20040;-75
2023/06/30 11:48:47;;;;;;;4.82;4.35;;;;;;;27.09;50.98;99286.44;10499921;28;20101;-75
2023/06/30 11:53:49;;;;;;;4.72;4.32;;;;;;;27.14;52.15;99280.53;10482351;28;20044;-74
2023/06/30 11:58:53;;;;;;;5.57;5.05;;;;;;;27.62;49.70;99260.56;10500063;28;20036;-74
2023/06/30 12:03:58;;;;;;;4.38;3.83;;;;;;;27.87;46.22;99268.56;10501198;28;20089;-74
2023/06/30 12:09:02;;;;;;;4.10;3.80;;;;;;;27.53;48.39;99258.09;10500464;28;20036;-74
2023/06/30 12:14:11;;;;;;;4.28;3.88;;;;;;;27.41;49.63;99263.06;10482011;28;20117;-74
2023/06/30 12:19:13;;;;;;;4.05;3.75;;;;;;;27.05;47.33;99252.72;10499719;28;20509;-75
2023/06/30 12:24:21;;;;;;;3.85;3.15;;;;;;;27.32;46.75;99256.00;10500338;28;20568;-75
2023/06/30 12:29:23;;;;;;;3.80;3.28;;;;;;;27.63;45.56;99261.44;10500099;28;20607;-75
2023/06/30 12:34:35;;;;;;;3.20;2.45;;;;;;;28.04;43.07;99272.84;10502284;28;20036;-76
2023/06/30 12:39:37;;;;;;;3.60;2.38;;;;;;;28.03;43.24;99286.53;10484671;28;20040;-74
2023/06/30 12:44:39;;;;;;;3.42;2.60;;;;;;;27.92;43.36;99280.50;10499180;28;20047;-75
2023/06/30 12:49:40;;;;;;;3.25;2.95;;;;;;;27.17;46.10;99282.84;10480259;28;20045;-76
2023/06/30 12:54:43;;;;;;;3.17;2.88;;;;;;;26.82;45.55;99284.94;10480799;28;20476;-75
2023/06/30 12:59:44;;;;;;;3.22;2.92;;;;;;;27.32;45.97;99261.41;10504582;28;20044;-75
2023/06/30 13:04:46;;;;;;;3.67;3.15;;;;;;;28.13;42.63;99255.56;10490581;28;20052;-75
2023/06/30 13:09:48;;;;;;;3.63;3.33;;;;;;;27.28;45.35;99278.97;10490121;28;20067;-75
2023/06/30 13:14:50;;;;;;;4.47;3.47;;;;;;;27.00;44.56;99282.03;10506567;28;20074;-75
2023/06/30 13:19:52;;;;;;;3.67;3.38;;;;;;;26.49;47.20;99294.06;10488868;28;20434;-75
2023/06/30 13:24:54;;;;;;;6.30;5.80;;;;;;;25.53;55.68;99294.50;10508170;28;20052;-74
2023/06/30 13:29:56;;;;;;;7.47;6.88;;;;;;;24.45;61.93;99285.94;10508068;28;20072;-75
2023/06/30 13:34:58;;;;;;;9.02;7.65;;;;;;;23.57;65.92;99299.09;10507232;28;20373;-77
2023/06/30 13:40:00;;;;;;;9.52;8.40;;;;;;;22.98;76.17;99320.94;10508249;28;20040;-76
2023/06/30 13:45:02;;;;;;;11.90;10.65;;;;;;;21.88;89.24;99305.97;10487672;28;20048;-73
2023/06/30 13:50:04;;;;;;;11.05;10.15;;;;;;;21.39;93.27;99304.19;10470344;28;20051;-73
2023/06/30 13:55:07;;;;;;;12.43;11.52;;;;;;;20.91;100.00;99275.38;10487214;28;20094;-72
2023/06/30 14:00:10;;;;;;;13.50;12.50;;;;;;;20.83;100.00;99267.19;10505737;28;20441;-71
2023/06/30 14:05:11;;;;;;;12.57;11.68;;;;;;;21.00;100.00;99268.38;10505069;28;20545;-72
2023/06/30 14:10:14;;;;;;;12.55;11.65;;;;;;;20.65;100.00;99275.78;10502899;28;20047;-73
2023/06/30 14:15:16;;;;;;;13.45;12.55;;;;;;;20.51;100.00;99280.63;10504109;28;20429;-71
2023/06/30 14:20:21;;;;;;;13.13;12.33;;;;;;;20.34;100.00;99295.34;10505003;28;20429;-72
2023/06/30 14:25:24;;;;;;;13.45;12.25;;;;;;;20.62;100.00;99293.88;10485963;28;20036;-72
2023/06/30 14:30:31;;;;;;;12.35;11.45;;;;;;;20.44;100.00;99301.59;10485508;28;20048;-72
2023/06/30 14:35:33;;;;;;;13.43;12.52;;;;;;;20.35;100.00;99321.06;10502989;28;20587;-72
2023/06/30 14:40:35;;;;;;;14.43;13.43;;;;;;;20.11;100.00;99313.28;10502800;28;20041;-72
2023/06/30 14:45:37;;;;;;;18.85;17.55;;;;;;;20.10;100.00;99324.94;10484345;28;20079;-72
2023/06/30 14:50:39;;;;;;;18.50;17.30;;;;;;;20.04;100.00;99323.59;10484773;28;20398;-72
2023/06/30 14:55:40;;;;;;;18.77;17.45;;;;;;;19.93;100.00;99323.66;10483800;28;20409;-73
2023/06/30 15:00:42;;;;;;;17.15;16.05;;;;;;;19.99;100.00;99336.47;10501521;28;20046;-73
2023/06/30 15:05:44;;;;;;;17.63;16.30;;;;;;;20.14;100.00;99345.91;10501646;28;20067;-72
2023/06/30 15:10:47;;;;;;;15.23;14.23;;;;;;;20.11;100.00;99348.81;10483292;28;20493;-72
2023/06/30 15:15:48;;;;;;;14.23;13.23;;;;;;;20.50;100.00;99362.53;10483732;28;20055;-73
2023/06/30 15:20:50;;;;;;;13.93;12.93;;;;;;;20.55;100.00;99356.81;10500656;28;20044;-73
2023/06/30 15:25:52;;;;;;;11.60;10.80;;;;;;;21.05;100.00;99354.34;10501788;28;20580;-73
2023/06/30 15:30:54;;;;;;;10.88;10.18;;;;;;;21.11;100.00;99362.66;10501167;28;20048;-73
2023/06/30 15:35:56;;;;;;;11.00;10.35;;;;;;;20.85;100.00;99358.69;10502809;28;20060;-73
2023/06/30 15:40:58;;;;;;;10.43;9.73;;;;;;;20.95;100.00;99367.63;10501942;28;20115;-73
2023/06/30 15:46:12;;;;;;;10.32;9.63;;;;;;;20.81;100.00;99363.47;10502628;28;20045;-73
2023/06/30 15:51:14;;;;;;;11.07;10.38;;;;;;;20.62;100.00;99364.16;10483809;28;20090;-73
2023/06/30 15:56:18;;;;;;;11.40;10.60;;;;;;;20.69;100.00;99363.66;10501675;28;20048;-74
2023/06/30 16:01:21;;;;;;;10.82;10.05;;;;;;;20.71;100.00;99362.53;10484695;28;20447;-74
2023/06/30 16:06:23;;;;;;;11.73;10.95;;;;;;;20.45;100.00;99347.81;10484541;28;20040;-74
2023/06/30 16:11:25;;;;;;;14.15;13.25;;;;;;;20.15;100.00;99346.75;10484665;28;20136;-75
2023/06/30 16:16:26;;;;;;;14.85;13.85;;;;;;;19.99;100.00;99344.47;10503962;28;20049;-74
2023/06/30 16:21:28;;;;;;;15.90;14.80;;;;;;;19.89;100.00;99340.88;10503471;28;20044;-74
2023/06/30 16:26:30;;;;;;;18.38;17.00;;;;;;;20.33;100.00;99347.03;10501816;28;20045;-74
2023/06/30 16:31:33;;;;;;;19.55;18.00;;;;;;;20.39;100.00;99341.19;10483759;28;20047;-74
2023/06/30 16:36:35;;;;;;;19.15;17.80;;;;;;;20.43;100.00;99337.28;10491751;28;20044;-74
2023/06/30 16:41:40;;;;;;;19.52;18.13;;;;;;;20.49;100.00;99335.94;10512193;28;20033;-74
2023/06/30 16:46:42;;;;;;;20.75;19.27;;;;;;;20.63;100.00;99335.66;10510918;28;20063;-74
2023/06/30 16:51:44;;;;;;;21.90;20.50;;;;;;;20.48;100.00;99337.78;10510665;28;20119;-75
2023/06/30 16:56:46;;;;;;;21.63;20.10;;;;;;;20.54;100.00;99337.28;10489519;28;20040;-74
2023/06/30 17:01:48;;;;;;;22.98;20.98;;;;;;;20.51;100.00;99334.84;10509754;28;20062;-74
2023/06/30 17:06:56;;;;;;;24.88;22.70;;;;;;;20.79;100.00;99333.34;10507884;28;20041;-75
2023/06/30 17:11:58;;;;;;;25.13;23.02;;;;;;;20.73;100.00;99333.06;10491644;28;20059;-74
2023/06/30 17:17:00;;;;;;;26.48;24.42;;;;;;;20.53;100.00;99343.56;10507230;28;20416;-73
2023/06/30 17:22:02;;;;;;;24.98;23.25;;;;;;;20.26;100.00;99341.34;10491265;28;20452;-74
2023/06/30 17:27:05;;;;;;;24.45;22.75;;;;;;;20.24;100.00;99350.47;10530630;22;20053;-70
2023/06/30 17:32:07;;;;;;;27.50;25.35;;;;;;;20.13;100.00;99357.53;10486644;28;20048;-70
2023/06/30 17:37:09;;;;;;;27.77;25.58;;;;;;;20.03;100.00;99361.09;10504201;28;20406;-70
2023/06/30 17:42:11;;;;;;;28.90;26.80;;;;;;;19.80;100.00;99361.13;10505112;28;20454;-71
2023/06/30 17:47:13;;;;;;;31.30;28.52;;;;;;;19.69;100.00;99360.28;10501982;28;20047;-71
2023/06/30 17:52:14;;;;;;;27.00;24.92;;;;;;;19.52;100.00;99365.13;10483840;28;20064;-70
2023/06/30 17:57:16;;;;;;;25.83;23.83;;;;;;;19.30;100.00;99359.78;10502538;28;20127;-70
2023/06/30 18:02:18;;;;;;;28.90;26.70;;;;;;;19.06;100.00;99359.88;10503673;28;20056;-71
2023/06/30 18:07:23;;;;;;;27.70;25.45;;;;;;;18.97;100.00;99360.59;10496008;28;20098;-72
2023/06/30 18:12:25;;;;;;;27.13;24.70;;;;;;;19.12;100.00;99365.59;10483039;28;20045;-70
2023/06/30 18:17:27;;;;;;;29.55;27.10;;;;;;;19.15;100.00;99367.16;10477509;28;20049;-70
2023/06/30 18:22:29;;;;;;;27.25;25.17;;;;;;;18.90;100.00;99377.06;10461019;28;20041;-70
2023/06/30 18:27:31;;;;;;;27.38;25.23;;;;;;;18.93;100.00;99375.97;10499416;28;20044;-70
2023/06/30 18:32:34;;;;;;;25.38;23.50;;;;;;;18.87;100.00;99371.13;10484238;28;20049;-71
2023/06/30 18:37:36;;;;;;;25.55;23.13;;;;;;;18.81;100.00;99371.56;10484257;28;20497;-73
2023/06/30 18:42:38;;;;;;;24.85;22.63;;;;;;;18.76;100.00;99366.59;10502367;28;20083;-71
2023/06/30 18:47:40;;;;;;;24.13;22.42;;;;;;;18.61;100.00;99375.72;10502947;28;20070;-72
2023/06/30 18:52:45;;;;;;;24.55;22.45;;;;;;;18.85;100.00;99368.56;10483667;28;20072;-72
2023/06/30 18:57:47;;;;;;;23.50;21.67;;;;;;;18.86;100.00;99374.75;10501865;28;20078;-72
2023/06/30 19:02:49;;;;;;;22.83;21.13;;;;;;;18.63;100.00;99371.97;10500834;28;20486;-71
2023/06/30 19:07:51;;;;;;;23.30;21.38;;;;;;;18.66;100.00;99373.56;10501810;28;20044;-70
2023/06/30 19:12:53;;;;;;;23.05;21.13;;;;;;;18.77;100.00;99376.31;10482712;28;20060;-72
2023/06/30 19:17:55;;;;;;;22.55;20.63;;;;;;;18.55;100.00;99381.50;10500023;28;20406;-72
2023/06/30 19:22:57;;;;;;;20.35;18.95;;;;;;;18.65;100.00;99388.69;10500385;28;20051;-71
2023/06/30 19:27:58;;;;;;;22.38;20.42;;;;;;;18.40;100.00;99387.00;10500181;28;20132;-71
2023/06/30 19:33:00;;;;;;;21.25;19.65;;;;;;;18.45;100.00;99401.78;10500141;28;20094;-71
2023/06/30 19:38:02;;;;;;;20.80;19.30;;;;;;;18.60;100.00;99420.13;10482231;28;20110;-72
2023/06/30 19:43:04;;;;;;;19.65;18.08;;;;;;;18.49;100.00;99420.06;10499585;28;20127;-71
2023/06/30 19:48:06;;;;;;;19.30;17.90;;;;;;;18.31;100.00;99416.09;10481749;28;20397;-71
2023/06/30 19:53:09;;;;;;;19.05;17.55;;;;;;;18.56;100.00;99418.66;10499752;28;20127;-71
2023/06/30 19:58:11;;;;;;;20.40;19.00;;;;;;;18.53;100.00;99412.72;10498934;28;20387;-71
2023/06/30 20:03:13;;;;;;;19.48;17.98;;;;;;;18.44;100.00;99413.41;10480952;28;20074;-70
2023/06/30 20:08:15;;;;;;;19.20;17.50;;;;;;;18.56;100.00;99410.66;10499522;28;20154;-71
2023/06/30 20:13:17;;;;;;;17.45;16.25;;;;;;;18.39;100.00;99403.94;10498632;28;20545;-71
2023/06/30 20:18:22;;;;;;;17.70;16.40;;;;;;;18.20;100.00;99406.25;10498545;28;20058;-70
2023/06/30 20:23:25;;;;;;;17.83;16.02;;;;;;;18.24;100.00;99410.41;10498182;28;20052;-70
2023/06/30 20:28:27;;;;;;;16.50;15.38;;;;;;;18.32;100.00;99407.16;10479908;28;20128;-70
2023/06/30 20:33:29;;;;;;;16.13;15.02;;;;;;;18.32;100.00;99409.81;10497731;28;20072;-70
2023/06/30 20:38:30;;;;;;;15.25;14.25;;;;;;;18.32;100.00;99399.16;10498449;28;20037;-69
2023/06/30 20:43:32;;;;;;;15.40;14.20;;;;;;;18.18;100.00;99400.19;10480889;28;20055;-70
2023/06/30 20:48:34;;;;;;;16.58;15.18;;;;;;;18.10;100.00;99398.09;10497196;28;20051;-69
2023/06/30 20:53:36;;;;;;;16.35;14.95;;;;;;;18.29;100.00;99391.44;10497745;28;20055;-69
2023/06/30 20:58:37;;;;;;;17.75;15.40;;;;;;;18.49;100.00;99390.78;10497636;28;20460;-69
2023/06/30 21:03:39;;;;;;;14.57;13.52;;;;;;;18.34;100.00;99387.47;10497321;28;20041;-70
2023/06/30 21:08:41;;;;;;;16.77;14.05;;;;;;;18.54;100.00;99393.94;10479361;28;20472;-70
2023/06/30 21:13:43;;;;;;;14.60;13.55;;;;;;;18.61;100.00;99384.56;10497530;28;20082;-69
2023/06/30 21:18:44;;;;;;;13.20;12.10;;;;;;;18.37;100.00;99379.28;10498816;28;20036;-70
2023/06/30 21:23:46;;;;;;;15.27;14.07;;;;;;;18.35;100.00;99377.66;10505524;28;20135;-70
2023/06/30 21:28:49;;;;;;;13.77;12.65;;;;;;;18.46;100.00;99375.06;10504327;28;20075;-70
2023/06/30 21:33:51;;;;;;;14.23;13.23;;;;;;;18.35;100.00;99373.19;10504735;28;20559;-70
2023/06/30 21:38:53;;;;;;;12.85;11.93;;;;;;;18.41;100.00;99379.88;10504410;28;20036;-70
2023/06/30 21:43:54;;;;;;;13.63;12.43;;;;;;;18.56;100.00;99380.56;10504750;28;20127;-70
2023/06/30 21:48:56;;;;;;;13.45;12.45;;;;;;;18.34;100.00;99370.66;10485910;28;20068;-70
2023/06/30 21:54:05;;;;;;;14.23;13.13;;;;;;;18.19;100.00;99363.78;10503356;28;20048;-70
2023/06/30 21:59:07;;;;;;;13.85;12.80;;;;;;;18.51;100.00;99366.75;10503152;28;20037;-70
2023/06/30 22:04:09;;;;;;;13.57;11.98;;;;;;;18.29;100.00;99360.34;10503916;28;20490;-70
2023/06/30 22:09:11;;;;;;;14.13;12.70;;;;;;;18.45;100.00;99362.72;10502779;28;20037;-70
2023/06/30 22:14:17;;;;;;;11.18;10.27;;;;;;;18.34;100.00;99366.19;10502623;28;20438;-69
2023/06/30 22:19:19;;;;;;;11.68;10.63;;;;;;;18.31;100.00;99362.91;10485297;28;20041;-69
2023/06/30 22:24:21;;;;;;;10.95;10.15;;;;;;;18.45;100.00;99353.88;10501950;28;20078;-68
2023/06/30 22:29:22;;;;;;;11.85;10.02;;;;;;;18.31;100.00;99357.56;10501657;28;20560;-69
2023/06/30 22:34:24;;;;;;;11.30;10.27;;;;;;;18.22;100.00;99358.25;10483978;28;20421;-70
2023/06/30 22:39:26;;;;;;;10.30;9.27;;;;;;;18.13;100.00;99350.00;10501600;28;20079;-70
2023/06/30 22:44:28;;;;;;;10.35;9.43;;;;;;;18.17;100.00;99355.94;10501494;28;20048;-70
2023/06/30 22:49:29;;;;;;;10.52;9.73;;;;;;;18.43;100.00;99364.66;10483777;28;20041;-70
2023/06/30 22:54:33;;;;;;;11.38;10.30;;;;;;;18.25;100.00;99358.03;10501371;28;20048;-69
2023/06/30 22:59:34;;;;;;;10.45;9.40;;;;;;;18.34;100.00;99358.19;10482998;28;20409;-69
2023/06/30 23:04:36;;;;;;;10.63;9.60;;;;;;;18.15;100.00;99352.56;10500814;28;20048;-70
2023/06/30 23:09:39;;;;;;;11.45;10.27;;;;;;;18.10;100.00;99357.34;10500902;28;20096;-70
2023/06/30 23:14:40;;;;;;;11.73;10.77;;;;;;;18.18;100.00;99357.63;10483790;28;20068;-70